Latest Weather Observations for Red Rocks Point

IDW60801

Issued at 12:03 pm WST Saturday 19 January 2019 (issued every 10 minutes, with the page automatically refreshed every 10 minutes)

About weather observations | Map of weather stations | Latest weather observations for WA | Other Formats
Station Details ID: 011053 Name: RED ROCKS POINT Lat: -32.20 Lon: 127.53 Height: 3.1 m
Data from the previous 72 hours. | See also: Recent months at Red Rocks Point
Date/Time
WST
Temp
°C
App
Temp
°C
Dew
Point
°C
Rel
Hum
%
Delta-T
°C
Wind Press
QNH
hPa
Press
MSL
hPa
Rain since
9am
mm
Dir  Spd
km/h
Gust
km/h
Spd
kts
Gust
kts
19/12:00pm 23.8 20.9 17.1 66 4.1 ESE 28 32 15 17 1022.2 1022.2 0.0
19/11:30am 23.7 20.7 17.7 69 3.7 ESE 30 33 16 18 1022.4 1022.4 0.0
19/11:00am 23.7 20.6 16.5 64 4.4 ESE 28 33 15 18 1022.5 1022.5 0.0
19/10:30am 24.1 21.2 17.1 65 4.3 ESE 28 33 15 18 1022.6 1022.6 0.0
19/10:00am 23.5 20.4 16.5 65 4.3 E 28 32 15 17 1022.6 1022.6 0.0
19/09:30am 23.8 20.8 16.8 65 4.3 ESE 28 33 15 18 1022.9 1022.9 0.0
19/09:00am 23.3 19.9 16.8 67 4.0 ESE 30 33 16 18 1023.0 1023.0 0.0
19/08:30am 22.5 19.4 16.5 69 3.6 E 28 33 15 18 1023.2 1023.2 0.0
19/08:00am 22.3 18.5 16.8 71 3.3 E 32 37 17 20 1023.3 1023.3 0.0
19/07:30am 21.6 17.9 17.0 75 2.8 ESE 32 35 17 19 1023.3 1023.3 0.0
19/07:00am 21.4 17.6 16.8 75 2.8 E 32 35 17 19 1023.4 1023.4 0.0
19/06:30am 20.9 17.4 16.5 76 2.7 ESE 30 37 16 20 1023.2 1023.2 0.0
19/06:00am 20.7 16.7 16.3 76 2.6 ESE 32 35 17 19 1022.5 1022.5 0.0
19/05:30am 20.7 17.6 16.5 77 2.5 ESE 28 32 15 17 1022.5 1022.5 0.0
19/05:00am 20.4 16.3 16.0 76 2.6 ESE 32 35 17 19 1022.0 1022.0 0.0
19/04:30am 20.5 16.5 16.1 76 2.6 ESE 32 37 17 20 1021.5 1021.5 0.0
19/04:00am 20.4 16.6 16.8 80 2.2 ESE 32 37 17 20 1021.3 1021.3 0.0
19/03:30am 20.4 16.9 16.6 79 2.3 ESE 30 37 16 20 1021.1 1021.1 0.0
19/03:00am 20.3 16.7 16.3 78 2.4 ESE 30 35 16 19 1021.0 1021.0 0.0
19/02:30am 20.4 17.2 16.4 78 2.4 ESE 28 33 15 18 1021.1 1021.1 0.0
19/02:00am 20.6 17.3 17.0 80 2.2 ESE 30 35 16 19 1020.7 1020.7 0.0
19/01:30am 20.5 17.0 16.5 78 2.4 ESE 30 35 16 19 1020.7 1020.7 0.0
19/01:00am 20.4 16.9 16.4 78 2.4 ESE 30 35 16 19 1020.7 1020.7 0.0
19/12:30am 20.4 16.8 16.2 77 2.5 ESE 30 33 16 18 1020.7 1020.7 0.0
19/12:00am 20.7 17.0 16.9 79 2.3 ESE 32 37 17 20 1020.9 1020.9 0.0
 
Date/Time
WST
Temp
°C
App
Temp
°C
Dew
Point
°C
Rel
Hum
%
Delta-T
°C
Wind Press
QNH
hPa
Press
MSL
hPa
Rain since
9am
mm
Dir  Spd
km/h
Gust
km/h
Spd
kts
Gust
kts
18/11:30pm 20.7 16.6 16.5 77 2.5 ESE 33 39 18 21 1021.1 1021.1 0.0
18/11:00pm 20.8 17.0 16.6 77 2.5 ESE 32 39 17 21 1021.2 1021.2 0.0
18/10:30pm 20.7 16.7 16.7 78 2.4 ESE 33 37 18 20 1021.1 1021.1 0.0
18/10:00pm 20.9 17.3 17.3 80 2.2 SE 32 39 17 21 1020.9 1020.9 0.0
18/09:30pm 20.7 17.3 16.7 78 2.4 SE 30 33 16 18 1021.0 1021.0 0.0
18/09:00pm 20.8 17.5 17.0 79 2.3 SE 30 33 16 18 1021.1 1021.1 0.0
18/08:30pm 20.7 17.7 16.7 78 2.4 SE 28 32 15 17 1020.9 1020.9 0.0
18/08:00pm 20.8 17.5 17.0 79 2.3 SE 30 35 16 19 1020.7 1020.7 0.0
18/07:30pm 20.7 17.6 16.5 77 2.5 SE 28 33 15 18 1020.6 1020.6 0.0
18/07:00pm 20.7 17.6 16.5 77 2.5 SE 28 33 15 18 1020.1 1020.1 0.0
18/06:30pm 20.9 17.8 16.5 76 2.7 SE 28 32 15 17 1020.0 1020.0 0.0
18/06:00pm 21.1 18.0 16.5 75 2.8 SE 28 32 15 17 1019.4 1019.4 0.0
18/05:30pm 21.6 18.5 16.6 73 3.0 SE 28 33 15 18 1019.4 1019.4 0.0
18/05:00pm 22.0 19.0 16.7 72 3.2 SSE 28 33 15 18 1019.0 1019.0 0.0
18/04:30pm 22.2 19.0 16.2 69 3.6 SE 28 33 15 18 1018.6 1018.6 0.0
18/04:00pm 22.7 19.5 16.3 67 3.9 SSE 28 32 15 17 1018.5 1018.5 0.0
18/03:30pm 22.9 20.0 16.2 66 4.1 SSE 26 32 14 17 1018.6 1018.6 0.0
18/03:00pm 23.0 20.6 16.5 67 4.0 SSE 24 28 13 15 1018.5 1018.5 0.0
18/02:30pm 23.6 21.3 16.6 65 4.3 SSE 24 28 13 15 1018.4 1018.4 0.0
18/02:00pm 23.4 20.3 15.7 62 4.6 SSE 26 28 14 15 1018.5 1018.5 0.0
18/01:30pm 23.4 20.8 16.0 63 4.5 SSE 24 30 13 16 1018.5 1018.5 0.0
18/01:00pm 23.5 20.7 15.3 60 4.9 SSE 24 28 13 15 1018.5 1018.5 0.0
18/12:30pm 24.1 22.1 15.6 59 5.1 SSE 20 24 11 13 1018.6 1018.6 0.0
18/12:00pm 23.8 21.8 15.6 60 4.9 SSE 20 26 11 14 1018.7 1018.7 0.0
18/11:30am 23.6 21.6 15.4 60 4.9 SSE 20 26 11 14 1018.7 1018.7 0.0
18/11:00am 24.0 22.2 16.0 61 4.8 SE 20 24 11 13 1018.4 1018.4 0.0
18/10:30am 22.8 20.7 15.1 62 4.6 SE 20 26 11 14 1018.3 1018.3 0.0
18/10:00am 23.0 20.7 15.8 64 4.3 SE 22 28 12 15 1018.1 1018.1 0.0
18/09:30am 23.0 20.7 15.6 63 4.4 SE 22 26 12 14 1017.8 1017.8 0.0
18/09:00am 21.9 19.3 14.8 64 4.2 SE 22 28 12 15 1017.5 1017.5 0.0
18/08:30am 22.5 19.5 14.9 62 4.5 SE 24 32 13 17 1017.2 1017.2 0.0
18/08:00am 21.8 18.6 15.4 67 3.8 SE 26 32 14 17 1017.2 1017.2 0.0
18/07:30am 21.6 18.1 15.4 68 3.7 SE 28 35 15 19 1016.9 1016.9 0.0
18/07:00am 21.3 17.8 15.6 70 3.4 SE 28 35 15 19 1016.8 1016.8 0.0
18/06:30am 20.6 16.6 15.2 71 3.2 SSE 30 37 16 20 1016.3 1016.3 0.0
18/06:00am 20.4 16.1 15.4 73 3.0 SSE 32 37 17 20 1015.6 1015.6 0.0
18/05:30am 20.0 16.1 15.4 75 2.7 SSE 30 39 16 21 1015.2 1015.2 0.0
18/05:00am 19.6 15.6 15.3 76 2.5 S 30 35 16 19 1014.6 1014.6 0.0
18/04:30am 19.6 16.1 15.5 77 2.4 SSE 28 33 15 18 1014.0 1014.0 0.0
18/04:00am 19.7 16.5 16.2 80 2.1 SSE 28 33 15 18 1013.8 1013.8 0.0
18/03:30am 19.6 16.2 15.7 78 2.3 SSE 28 32 15 17 1013.3 1013.3 0.0
18/03:00am 19.6 16.2 15.7 78 2.3 SSE 28 35 15 19 1012.7 1012.7 0.0
18/02:30am 19.8 16.4 15.9 78 2.3 SE 28 33 15 18 1012.8 1012.8 0.0
18/02:00am 20.0 17.1 16.2 79 2.3 SSE 26 30 14 16 1013.1 1013.1 0.0
18/01:30am 19.9 17.3 16.0 78 2.3 SE 24 28 13 15 1012.9 1012.9 0.0
18/01:00am 19.9 17.9 15.5 76 2.6 SE 20 24 11 13 1013.4 1013.4 0.0
18/12:30am 20.0 18.4 16.0 78 2.4 SE 19 24 10 13 1013.8 1013.8 0.0
18/12:00am 20.0 17.4 15.8 77 2.5 SE 24 30 13 16 1013.7 1013.7 0.0
 
Date/Time
WST
Temp
°C
App
Temp
°C
Dew
Point
°C
Rel
Hum
%
Delta-T
°C
Wind Press
QNH
hPa
Press
MSL
hPa
Rain since
9am
mm
Dir  Spd
km/h
Gust
km/h
Spd
kts
Gust
kts
17/11:30pm 20.0 17.1 16.2 79 2.3 SSE 26 32 14 17 1013.2 1013.2 0.0
17/11:00pm 20.1 17.3 16.3 79 2.3 S 26 30 14 16 1013.2 1013.2 0.0
17/10:30pm 20.1 16.5 16.3 79 2.3 S 30 35 16 19 1012.9 1012.9 0.0
17/10:00pm 20.2 16.1 16.0 77 2.5 S 32 37 17 20 1013.2 1013.2 0.0
17/09:30pm 20.5 16.6 16.5 78 2.4 S 32 39 17 21 1013.4 1013.4 0.0
17/09:00pm 20.6 16.7 17.0 80 2.2 S 33 39 18 21 1013.1 1013.1 0.0
17/08:30pm 20.5 16.1 16.7 79 2.3 S 35 41 19 22 1012.4 1012.4 0.0
17/08:00pm 20.4 16.5 16.4 78 2.4 SSE 32 37 17 20 1012.0 1012.0 0.0
17/07:30pm 20.3 15.7 16.1 77 2.5 SSE 35 41 19 22 1011.5 1011.5 0.0
17/07:00pm 20.5 16.7 16.7 79 2.3 SSE 32 37 17 20 1011.1 1011.1 0.0
17/06:30pm 20.5 17.0 16.5 78 2.4 SSE 30 35 16 19 1011.0 1011.0 0.0
17/06:00pm 20.9 18.2 16.7 77 2.5 SSE 26 32 14 17 1010.9 1010.9 0.0
17/05:30pm 21.1 18.2 16.1 73 3.0 SSE 26 30 14 16 1010.6 1010.6 0.0
17/05:00pm 21.5 18.8 16.7 74 2.9 S 26 30 14 16 1010.0 1010.0 0.0
17/04:30pm 22.0 19.6 17.4 75 2.8 SSE 26 32 14 17 1009.4 1009.4 0.0
17/04:00pm 22.1 18.5 17.2 74 3.0 SSE 32 35 17 19 1008.9 1008.9 0.0
17/03:30pm 22.3 19.2 17.4 74 3.0 SSE 30 35 16 19 1009.1 1009.1 0.0
17/03:00pm 22.5 19.7 18.1 76 2.8 SSE 30 33 16 18 1009.4 1009.4 0.0
17/02:30pm 23.0 20.5 17.0 69 3.7 SSE 26 30 14 16 1009.8 1009.8 0.0
17/02:00pm 23.2 20.8 17.4 70 3.6 SSE 26 30 14 16 1009.9 1009.9 0.0
17/01:30pm 23.2 21.5 17.2 69 3.7 SSE 22 26 12 14 1010.2 1010.2 0.0
17/01:00pm 22.9 21.5 16.9 69 3.7 SE 20 24 11 13 1010.2 1010.2 0.0
17/12:30pm 23.3 21.7 16.4 65 4.2 SE 20 24 11 13 1010.5 1010.5 0.0
17/12:00pm 24.2 23.1 17.4 65 4.2 SE 19 24 10 13 1010.1 1010.1 0.0
17/11:30am 24.6 23.4 17.1 63 4.6 SE 19 20 10 11 1010.8 1010.8 0.0
17/11:00am 24.7 23.3 16.9 62 4.8 ESE 20 24 11 13 1010.5 1010.5 0.0
17/10:30am 24.4 23.3 17.4 65 4.4 ESE 19 20 10 11 1010.7 1010.7 0.0
17/10:00am 23.8 22.5 16.8 65 4.3 ESE 19 20 10 11 1010.9 1010.9 0.0
17/09:30am 23.7 22.6 17.2 67 4.0 ESE 19 24 10 13 1010.5 1010.5 0.0
17/09:00am 23.4 22.8 17.6 70 3.6 SE 17 22 9 12 1010.4 1010.4 0.4
17/08:30am 22.2 21.3 16.9 72 3.2 SE 17 20 9 11 1010.4 1010.4 0.4
17/08:00am 22.0 20.1 16.7 72 3.2 SE 22 26 12 14 1010.2 1010.2 0.4
17/07:30am 22.2 21.1 17.3 74 3.0 SE 19 24 10 13 1010.5 1010.5 0.4
17/07:00am 21.2 19.6 16.6 75 2.8 SE 20 24 11 13 1010.4 1010.4 0.4
17/06:30am 21.0 19.1 16.6 76 2.7 SSE 22 28 12 15 1010.2 1010.2 0.4
17/06:00am 20.4 17.7 16.6 79 2.3 SE 26 32 14 17 1010.1 1010.1 0.4
17/05:30am 20.1 17.0 16.5 80 2.2 SE 28 33 15 18 1009.8 1009.8 0.4
17/05:00am 20.0 16.9 16.6 81 2.1 SSE 28 32 15 17 1009.7 1009.7 0.4
17/04:30am 19.8 17.7 16.3 80 2.1 SE 22 26 12 14 1009.5 1009.5 0.4
17/04:00am 19.8 17.7 16.1 79 2.2 SSE 22 26 12 14 1009.2 1009.2 0.4
17/03:30am 19.9 18.2 16.2 79 2.2 SSE 20 24 11 13 1009.3 1009.3 0.4
17/03:00am 20.0 18.4 16.4 80 2.2 SSE 20 24 11 13 1009.3 1009.3 0.4
17/02:30am 20.0 18.4 16.4 80 2.2 S 20 24 11 13 1009.5 1009.5 0.4
17/02:00am 19.9 18.9 16.5 81 2.0 S 17 20 9 11 1010.0 1010.0 0.4
17/01:30am 20.3 19.3 16.5 79 2.3 S 17 20 9 11 1010.2 1010.2 0.4
17/01:00am 20.1 19.1 16.5 80 2.2 S 17 22 9 12 1010.3 1010.3 0.4
17/12:30am 20.1 18.0 16.1 78 2.4 SSW 22 28 12 15 1010.0 1010.0 0.4
17/12:00am 20.2 18.6 16.6 80 2.2 SSW 20 28 11 15 1009.7 1009.7 0.4
 
Date/Time
WST
Temp
°C
App
Temp
°C
Dew
Point
°C
Rel
Hum
%
Delta-T
°C
Wind Press
QNH
hPa
Press
MSL
hPa
Rain since
9am
mm
Dir  Spd
km/h
Gust
km/h
Spd
kts
Gust
kts
16/11:30pm 20.2 18.0 17.0 82 1.9 SSW 24 30 13 16 1009.8 1009.8 0.4
16/11:00pm 20.5 17.8 17.5 83 1.8 S 28 33 15 18 1009.2 1009.2 0.4
16/10:30pm 20.4 17.3 17.6 84 1.7 S 30 35 16 19 1009.1 1009.1 0.4
16/10:00pm 20.5 17.7 18.1 86 1.5 S 30 33 16 18 1009.1 1009.1 0.4
16/09:30pm 20.7 19.0 18.1 85 1.6 S 24 28 13 15 1009.2 1009.2 0.4
16/09:00pm 20.7 18.4 18.5 87 1.4 S 28 30 15 16 1009.4 1009.4 0.4
16/08:30pm 20.6 17.9 18.4 87 1.4 S 30 33 16 18 1009.0 1009.0 0.4
16/08:00pm 20.8 17.6 18.6 87 1.4 S 33 39 18 21 1008.4 1008.4 0.4
16/07:30pm 20.9 17.7 18.7 87 1.4 S 33 39 18 21 1008.4 1008.4 0.4
16/07:00pm 21.0 18.1 18.8 87 1.4 SSE 32 37 17 20 1008.3 1008.3 0.4
16/06:30pm 21.1 18.9 18.7 86 1.5 S 28 35 15 19 1008.3 1008.3 0.2
16/06:00pm 21.2 20.2 18.8 86 1.5 SSE 22 26 12 14 1008.1 1008.1 0.2
16/05:30pm 21.4 20.7 18.6 84 1.8 S 20 24 11 13 1008.1 1008.1 0.2
16/05:00pm 21.7 21.6 18.7 83 1.9 S 17 20 9 11 1007.8 1007.8 0.2
16/04:30pm 21.9 22.3 18.9 83 1.9 SSE 15 19 8 10 1007.6 1007.6 0.2
16/04:00pm 22.2 22.9 18.8 81 2.1 SE 13 15 7 8 1007.4 1007.4 0.2
16/03:30pm 22.5 22.8 18.7 79 2.4 SE 15 20 8 11 1007.5 1007.5 0.2
16/03:00pm 21.6 21.0 18.8 84 1.8 SSE 20 26 11 14 1007.5 1007.5 0.2
16/02:30pm 21.3 18.7 18.7 85 1.6 SE 30 35 16 19 1006.3 1006.3 0.2
16/02:00pm 21.3 18.2 18.5 84 1.8 SE 32 35 17 19 1006.9 1006.9 0.2
16/01:30pm 22.0 20.2 18.8 82 2.0 SE 26 30 14 16 1007.3 1007.3 0.2
16/01:00pm 21.3 19.2 18.9 86 1.5 ESE 28 33 15 18 1007.8 1007.8 0.2
16/12:30pm 20.5 19.4 18.6 89 1.2 SSE 22 28 12 15 1008.9 1008.9 0.2

Other Formats:

Comma delimited format used in spreadsheet applications
http://www.bom.gov.au/fwo/IDW60801/IDW60801.94644.axf

JavaScript Object Notation format (JSON) in row-major order
http://www.bom.gov.au/fwo/IDW60801/IDW60801.94644.json